createdAt,value
2019-05-09T00:00:53.592Z,91.50
2019-05-09T00:03:24.322Z,90.90
2019-05-09T00:05:54.279Z,91.00
2019-05-09T00:08:44.225Z,91.20
2019-05-09T00:11:14.726Z,91.30
2019-05-09T00:13:44.769Z,91.10
2019-05-09T00:16:14.828Z,91.20
2019-05-09T00:18:44.700Z,91.30
2019-05-09T00:21:19.020Z,91.00
2019-05-09T00:23:49.752Z,91.10
2019-05-09T00:26:19.464Z,91.10
2019-05-09T00:28:52.801Z,90.60
2019-05-09T00:31:33.827Z,90.60
2019-05-09T00:34:05.310Z,90.80
2019-05-09T00:36:34.998Z,90.90
2019-05-09T00:39:05.833Z,90.90
2019-05-09T00:41:35.542Z,90.80
2019-05-09T00:44:09.747Z,90.80
2019-05-09T00:46:53.514Z,90.80
2019-05-09T00:49:24.946Z,90.70
2019-05-09T00:51:54.661Z,91.10
2019-05-09T00:54:24.367Z,91.20
2019-05-09T00:56:54.179Z,91.10
2019-05-09T00:59:24.209Z,91.30
2019-05-09T01:01:54.411Z,91.40
2019-05-09T01:04:24.360Z,91.90
2019-05-09T01:06:54.181Z,91.50
2019-05-09T01:09:25.087Z,91.50
2019-05-09T01:11:54.798Z,91.80
2019-05-09T01:14:24.504Z,91.40
2019-05-09T01:16:54.215Z,91.40
2019-05-09T01:19:23.926Z,91.80
2019-05-09T01:21:54.228Z,91.30
2019-05-09T01:24:24.165Z,91.80
2019-05-09T01:26:54.314Z,91.80
2019-05-09T01:29:24.198Z,92.00
2019-05-09T01:31:55.445Z,91.90
2019-05-09T01:34:26.999Z,92.00
2019-05-09T01:37:07.365Z,92.10
2019-05-09T01:39:37.070Z,91.70
2019-05-09T01:42:19.295Z,91.80
2019-05-09T01:44:49.084Z,91.80
2019-05-09T01:47:18.794Z,91.70
2019-05-09T01:49:48.504Z,91.80
2019-05-09T01:52:18.214Z,91.60
2019-05-09T01:54:49.666Z,91.40
2019-05-09T01:57:19.375Z,91.20
2019-05-09T01:59:49.085Z,91.00
2019-05-09T02:02:18.795Z,91.50
2019-05-09T02:04:48.504Z,91.70
2019-05-09T02:07:18.220Z,91.50
2019-05-09T02:09:47.927Z,91.30
2019-05-09T02:12:17.635Z,91.50
2019-05-09T02:14:54.412Z,91.50
2019-05-09T02:17:25.657Z,91.50
2019-05-09T02:19:55.369Z,91.50
2019-05-09T02:22:35.005Z,91.50
2019-05-09T02:25:06.122Z,91.80
2019-05-09T02:27:36.830Z,91.40
2019-05-09T02:30:10.394Z,91.80
2019-05-09T02:32:40.246Z,91.30
2019-05-09T02:35:09.957Z,91.30
2019-05-09T02:37:39.871Z,91.30
2019-05-09T02:40:10.284Z,91.50
2019-05-09T02:42:40.454Z,91.60
2019-05-09T02:45:11.355Z,91.40
2019-05-09T02:47:41.067Z,91.40
2019-05-09T02:50:12.219Z,91.70
2019-05-09T02:52:41.923Z,91.70
2019-05-09T02:55:11.634Z,91.20
2019-05-09T02:57:41.444Z,91.40
2019-05-09T03:00:24.980Z,91.30
2019-05-09T03:03:08.930Z,91.30
2019-05-09T03:05:38.315Z,91.40
2019-05-09T03:08:09.035Z,91.40
2019-05-09T03:10:39.284Z,91.60
2019-05-09T03:13:09.488Z,91.80
2019-05-09T03:15:39.784Z,91.80
2019-05-09T03:18:09.600Z,91.50
2019-05-09T03:20:58.593Z,91.50
2019-05-09T03:23:28.539Z,91.30
2019-05-09T03:25:59.118Z,91.50
2019-05-09T03:28:34.583Z,91.40
2019-05-09T03:31:09.915Z,91.10
2019-05-09T03:33:40.912Z,91.30
2019-05-09T03:36:10.895Z,91.20
2019-05-09T03:38:40.703Z,91.40
2019-05-09T03:41:10.412Z,91.30
2019-05-09T03:43:40.123Z,91.40
2019-05-09T03:46:20.279Z,91.20
2019-05-09T03:48:54.289Z,91.00
2019-05-09T03:51:23.998Z,91.20
2019-05-09T03:53:53.708Z,91.10
2019-05-09T03:56:34.275Z,91.10
2019-05-09T03:59:04.090Z,91.10
2019-05-09T04:01:33.796Z,91.00
2019-05-09T04:04:04.324Z,91.20
2019-05-09T04:06:34.140Z,91.20
2019-05-09T04:09:07.514Z,91.40
2019-05-09T04:11:38.150Z,91.40
2019-05-09T04:14:10.743Z,91.30
2019-05-09T04:16:40.455Z,91.50
2019-05-09T04:19:10.267Z,91.50
2019-05-09T04:21:39.977Z,91.50
2019-05-09T04:24:09.687Z,91.50
2019-05-09T04:26:48.407Z,91.50
2019-05-09T04:29:18.510Z,91.60
2019-05-09T04:31:48.454Z,91.10
2019-05-09T04:34:18.487Z,91.00
2019-05-09T04:36:48.524Z,90.70
2019-05-09T04:39:23.483Z,90.60
2019-05-09T04:41:49.727Z,90.70
2019-05-09T04:44:28.446Z,90.90
2019-05-09T04:47:00.165Z,90.90
2019-05-09T04:49:30.191Z,90.90
2019-05-09T04:52:01.077Z,91.20
2019-05-09T04:54:30.785Z,91.50
2019-05-09T04:57:00.493Z,91.30
2019-05-09T04:59:30.204Z,91.20
2019-05-09T05:02:18.264Z,91.10
2019-05-09T05:04:48.364Z,91.30
2019-05-09T05:07:18.272Z,91.00
2019-05-09T05:09:48.479Z,91.10
2019-05-09T05:12:19.338Z,90.90
2019-05-09T05:14:49.048Z,90.60
2019-05-09T05:17:18.861Z,90.90
2019-05-09T05:19:49.288Z,91.20
2019-05-09T05:22:23.298Z,90.90
2019-05-09T05:24:55.850Z,90.70
2019-05-09T05:27:27.831Z,90.30
2019-05-09T05:29:58.372Z,88.90
2019-05-09T05:32:32.583Z,89.00
2019-05-09T05:35:07.426Z,87.20
2019-05-09T05:37:38.699Z,87.20
2019-05-09T05:40:08.064Z,87.10
2019-05-09T05:42:38.898Z,86.90
2019-05-09T05:45:09.429Z,86.40
2019-05-09T05:47:43.541Z,85.10
2019-05-09T05:50:13.254Z,83.90
2019-05-09T05:52:42.963Z,84.40
2019-05-09T05:55:12.672Z,83.60
2019-05-09T05:57:42.383Z,81.80
2019-05-09T06:00:14.449Z,81.80
2019-05-09T06:02:44.157Z,82.10
2019-05-09T06:05:13.766Z,81.20
2019-05-09T06:07:43.519Z,82.40
2019-05-09T06:10:13.392Z,81.40
2019-05-09T06:12:43.101Z,82.50
2019-05-09T06:15:12.813Z,80.80
2019-05-09T06:17:42.522Z,79.80
2019-05-09T06:20:12.541Z,80.20
2019-05-09T06:22:42.251Z,78.90
2019-05-09T06:25:11.963Z,75.90
2019-05-09T06:27:42.394Z,75.80
2019-05-09T06:30:17.510Z,76.10
2019-05-09T06:32:47.727Z,74.40
2019-05-09T06:35:20.835Z,74.20
2019-05-09T06:37:50.544Z,73.40
2019-05-09T06:40:24.244Z,75.50
2019-05-09T06:42:53.958Z,75.20
2019-05-09T06:45:41.798Z,72.60
2019-05-09T06:48:12.732Z,69.50
2019-05-09T06:50:42.545Z,69.60
2019-05-09T06:53:12.358Z,69.30
2019-05-09T06:55:42.071Z,71.40
2019-05-09T06:58:31.644Z,70.50
2019-05-09T07:01:21.936Z,71.30
2019-05-09T07:03:54.195Z,71.30
2019-05-09T07:06:28.168Z,68.30
2019-05-09T07:09:04.278Z,66.10
2019-05-09T07:11:33.987Z,65.30
2019-05-09T07:14:03.698Z,65.50
2019-05-09T07:16:33.407Z,68.80
2019-05-09T07:19:03.118Z,65.30
2019-05-09T07:21:50.851Z,64.30
2019-05-09T07:24:21.384Z,65.10
2019-05-09T07:26:51.089Z,62.80
2019-05-09T07:29:21.825Z,64.10
2019-05-09T07:31:59.212Z,65.00
2019-05-09T07:34:30.460Z,62.30
2019-05-09T07:37:00.169Z,62.70
2019-05-09T07:39:29.880Z,63.90
2019-05-09T07:41:59.590Z,60.10
2019-05-09T07:44:44.248Z,61.90
2019-05-09T07:47:02.185Z,63.20
2019-05-09T07:49:31.899Z,62.60
2019-05-09T07:52:06.577Z,59.40
2019-05-09T07:54:32.954Z,59.70
2019-05-09T07:57:02.664Z,59.30
2019-05-09T07:59:32.373Z,59.70
2019-05-09T08:02:13.992Z,60.60
2019-05-09T08:04:43.676Z,58.30
2019-05-09T08:07:13.385Z,60.10
2019-05-09T08:09:43.101Z,59.80
2019-05-09T08:12:12.804Z,58.10
2019-05-09T08:14:42.514Z,58.70
2019-05-09T08:17:12.222Z,55.30
2019-05-09T08:19:41.950Z,57.50
2019-05-09T08:22:11.644Z,57.00
2019-05-09T08:24:41.352Z,53.40
2019-05-09T08:27:11.064Z,53.40
2019-05-09T08:29:40.827Z,54.90
2019-05-09T08:32:10.483Z,56.90
2019-05-09T08:34:40.193Z,56.80
2019-05-09T08:37:12.572Z,55.40
2019-05-09T08:39:41.257Z,53.60
2019-05-09T08:42:10.962Z,52.80
2019-05-09T08:44:42.159Z,53.20
2019-05-09T08:47:12.021Z,50.80
2019-05-09T08:49:46.452Z,49.80
2019-05-09T08:52:16.448Z,51.70
2019-05-09T08:54:48.551Z,51.30
2019-05-09T08:57:18.455Z,51.40
2019-05-09T08:59:50.547Z,51.10
2019-05-09T09:02:22.293Z,53.80
2019-05-09T09:04:50.847Z,51.10
2019-05-09T09:07:20.555Z,52.20
2019-05-09T09:09:50.266Z,53.00
2019-05-09T09:12:31.306Z,52.10
2019-05-09T09:14:51.223Z,51.30
2019-05-09T09:17:20.931Z,52.80
2019-05-09T09:19:50.642Z,53.60
2019-05-09T09:22:20.304Z,53.70
2019-05-09T09:24:49.927Z,54.60
2019-05-09T09:27:19.532Z,56.90
2019-05-09T09:29:49.271Z,52.50
2019-05-09T09:32:19.145Z,54.90
2019-05-09T09:34:49.000Z,47.80
2019-05-09T09:37:18.722Z,47.60
2019-05-09T09:39:48.984Z,47.80
2019-05-09T09:42:19.834Z,46.50
2019-05-09T09:44:50.091Z,45.70
2019-05-09T09:47:23.275Z,50.40
2019-05-09T09:49:51.047Z,48.50
2019-05-09T09:52:20.764Z,47.50
2019-05-09T09:54:50.446Z,47.90
2019-05-09T09:57:20.177Z,46.10
2019-05-09T10:00:00.127Z,44.80
2019-05-09T10:02:31.355Z,46.00
2019-05-09T10:05:00.984Z,49.00
2019-05-09T10:07:43.088Z,49.70
2019-05-09T10:10:18.341Z,49.00
2019-05-09T10:12:49.338Z,50.70
2019-05-09T10:15:23.244Z,52.40
2019-05-09T10:17:58.275Z,53.70
2019-05-09T10:20:29.829Z,51.60
2019-05-09T10:23:11.148Z,47.80
2019-05-09T10:25:31.016Z,51.80
2019-05-09T10:28:02.267Z,47.20
2019-05-09T10:30:34.108Z,45.60
2019-05-09T10:33:03.838Z,43.50
2019-05-09T10:35:35.241Z,43.50
2019-05-09T10:38:08.787Z,43.00
2019-05-09T10:40:40.220Z,39.40
2019-05-09T10:43:10.155Z,43.40
2019-05-09T10:45:41.375Z,43.80
2019-05-09T10:48:11.116Z,43.00
2019-05-09T10:50:44.356Z,41.60
2019-05-09T10:53:12.143Z,42.10
2019-05-09T10:55:41.851Z,42.80
2019-05-09T10:58:11.560Z,43.70
2019-05-09T11:00:41.302Z,44.10
2019-05-09T11:03:11.008Z,45.30
2019-05-09T11:05:40.796Z,47.40
2019-05-09T11:08:10.431Z,47.80
2019-05-09T11:10:40.243Z,47.10
2019-05-09T11:13:11.670Z,45.10
2019-05-09T11:15:42.445Z,43.00
2019-05-09T11:18:12.212Z,43.30
2019-05-09T11:20:41.977Z,42.60
2019-05-09T11:23:11.631Z,45.30
2019-05-09T11:25:41.370Z,47.10
2019-05-09T11:28:14.990Z,49.10
2019-05-09T11:30:42.400Z,49.80
2019-05-09T11:33:12.141Z,52.90
2019-05-09T11:35:41.850Z,50.60
2019-05-09T11:38:11.757Z,52.00
2019-05-09T11:40:42.645Z,52.70
2019-05-09T11:43:12.284Z,54.70
2019-05-09T11:45:42.022Z,60.80
2019-05-09T11:48:11.629Z,60.90
2019-05-09T11:50:41.341Z,66.20
2019-05-09T11:53:11.019Z,69.60
2019-05-09T11:55:43.204Z,71.00
2019-05-09T11:58:11.976Z,70.60
2019-05-09T12:00:41.715Z,67.00
2019-05-09T12:03:11.429Z,59.60
2019-05-09T12:05:41.136Z,60.20
2019-05-09T12:08:10.846Z,54.60
2019-05-09T12:10:40.527Z,52.70
2019-05-09T12:13:10.265Z,53.00
2019-05-09T12:15:39.981Z,51.60
2019-05-09T12:18:11.666Z,49.20
2019-05-09T12:20:40.904Z,52.20
2019-05-09T12:23:10.615Z,44.30
2019-05-09T12:25:40.394Z,47.80
2019-05-09T12:28:11.065Z,44.20
2019-05-09T12:30:40.796Z,43.80
2019-05-09T12:33:10.508Z,44.50
2019-05-09T12:35:42.144Z,39.90
2019-05-09T12:38:11.607Z,43.00
2019-05-09T12:40:43.288Z,42.10
2019-05-09T12:43:13.009Z,39.90
2019-05-09T12:45:42.714Z,40.40
2019-05-09T12:48:15.568Z,39.80
2019-05-09T12:50:43.824Z,42.10
2019-05-09T12:53:13.484Z,38.70
2019-05-09T12:55:47.429Z,39.60
2019-05-09T12:58:29.625Z,39.80
2019-05-09T13:00:59.510Z,38.40
2019-05-09T13:03:29.253Z,36.20
2019-05-09T13:05:59.061Z,41.70
2019-05-09T13:08:28.668Z,39.10
2019-05-09T13:10:58.549Z,40.20
2019-05-09T13:13:32.169Z,40.10
2019-05-09T13:16:02.109Z,37.30
2019-05-09T13:18:50.527Z,38.40
2019-05-09T13:21:20.232Z,38.00
2019-05-09T13:23:52.369Z,39.70
2019-05-09T13:26:23.247Z,37.20
2019-05-09T13:28:52.513Z,36.60
2019-05-09T13:31:22.247Z,35.90
2019-05-09T13:33:51.956Z,36.90
2019-05-09T13:36:21.668Z,37.40
2019-05-09T13:39:00.588Z,37.80
2019-05-09T13:41:22.644Z,40.80
2019-05-09T13:43:58.078Z,38.80
2019-05-09T13:46:23.610Z,37.00
2019-05-09T13:49:08.249Z,28.90
2019-05-09T13:51:24.565Z,30.00
2019-05-09T13:53:54.274Z,30.30
2019-05-09T13:56:23.959Z,33.80
2019-05-09T13:58:53.732Z,30.80
2019-05-09T14:01:23.405Z,28.30
2019-05-09T14:03:53.040Z,29.80
2019-05-09T14:06:22.722Z,31.60
2019-05-09T14:08:52.463Z,35.30
2019-05-09T14:11:22.011Z,34.50
2019-05-09T14:13:51.751Z,34.30
2019-05-09T14:16:22.443Z,34.80
2019-05-09T14:18:55.382Z,32.20
2019-05-09T14:21:24.559Z,28.30
2019-05-09T14:24:09.228Z,32.20
2019-05-09T14:26:27.733Z,33.70
2019-05-09T14:28:58.257Z,34.60
2019-05-09T14:31:31.800Z,38.20
2019-05-09T14:33:59.622Z,36.60
2019-05-09T14:36:29.335Z,36.50
2019-05-09T14:38:59.042Z,30.70
2019-05-09T14:41:40.525Z,30.60
2019-05-09T14:44:10.144Z,31.90
2019-05-09T14:46:39.847Z,35.20
2019-05-09T14:49:09.456Z,38.30
2019-05-09T14:51:39.164Z,38.10
2019-05-09T14:54:08.848Z,40.20
2019-05-09T14:56:41.811Z,37.70
2019-05-09T14:59:10.061Z,33.90
2019-05-09T15:01:43.682Z,33.50
2019-05-09T15:04:12.954Z,33.00
2019-05-09T15:06:44.298Z,33.50
2019-05-09T15:09:13.669Z,33.40
2019-05-09T15:11:43.377Z,33.50
2019-05-09T15:14:13.108Z,34.40
2019-05-09T15:16:44.527Z,34.20
2019-05-09T15:19:14.269Z,33.20
2019-05-09T15:21:43.851Z,33.60
2019-05-09T15:24:13.588Z,36.50
2019-05-09T15:26:43.298Z,37.00
2019-05-09T15:29:13.983Z,38.20
2019-05-09T15:31:53.172Z,35.10
2019-05-09T15:34:14.989Z,36.10
2019-05-09T15:36:44.697Z,40.40
2019-05-09T15:39:14.407Z,39.20
2019-05-09T15:41:44.120Z,37.30
2019-05-09T15:44:13.828Z,37.60
2019-05-09T15:46:45.074Z,38.80
2019-05-09T15:49:14.757Z,40.80
2019-05-09T15:51:47.755Z,41.40
2019-05-09T15:54:34.807Z,41.00
2019-05-09T15:57:04.467Z,42.00
2019-05-09T15:59:34.181Z,45.30
2019-05-09T16:02:03.917Z,44.10
2019-05-09T16:04:33.601Z,45.50
2019-05-09T16:07:03.346Z,47.80
2019-05-09T16:09:34.785Z,48.30
2019-05-09T16:12:04.395Z,48.20
2019-05-09T16:14:34.111Z,48.80
2019-05-09T16:17:03.816Z,58.70
2019-05-09T16:19:33.526Z,57.30
2019-05-09T16:22:03.241Z,57.50
2019-05-09T16:24:32.949Z,58.40
2019-05-09T16:27:02.537Z,56.60
2019-05-09T16:29:32.533Z,56.50
2019-05-09T16:32:02.337Z,52.50
2019-05-09T16:34:31.973Z,51.90
2019-05-09T16:37:01.703Z,50.80
2019-05-09T16:39:31.412Z,49.50
2019-05-09T16:42:01.123Z,49.90
2019-05-09T16:44:30.831Z,52.20
2019-05-09T16:47:00.542Z,51.40
2019-05-09T16:49:30.229Z,51.90
2019-05-09T16:51:59.963Z,50.50
2019-05-09T16:54:32.232Z,52.60
2019-05-09T16:57:01.943Z,51.90
2019-05-09T16:59:31.654Z,54.00
2019-05-09T17:02:16.801Z,54.70
2019-05-09T17:04:32.610Z,53.10
2019-05-09T17:07:02.216Z,52.80
2019-05-09T17:09:33.527Z,52.80
2019-05-09T17:12:03.247Z,50.10
2019-05-09T17:14:32.963Z,50.00
2019-05-09T17:17:02.567Z,48.20
2019-05-09T17:19:32.302Z,47.80
2019-05-09T17:22:13.686Z,49.20
2019-05-09T17:24:44.084Z,49.80
2019-05-09T17:27:13.820Z,49.80
2019-05-09T17:29:43.542Z,51.20
2019-05-09T17:32:14.238Z,51.60
2019-05-09T17:34:47.463Z,51.20
2019-05-09T17:37:17.726Z,52.80
2019-05-09T17:39:47.700Z,52.90
2019-05-09T17:42:18.282Z,53.00
2019-05-09T17:44:48.757Z,54.20
2019-05-09T17:47:18.774Z,53.90
2019-05-09T17:49:48.492Z,55.00
2019-05-09T17:52:19.192Z,55.50
2019-05-09T17:54:49.723Z,54.50
2019-05-09T17:57:21.235Z,54.90
2019-05-09T17:59:50.919Z,55.90
2019-05-09T18:02:21.622Z,55.70
2019-05-09T18:04:53.184Z,56.10
2019-05-09T18:07:22.484Z,57.70
2019-05-09T18:09:52.206Z,57.50
2019-05-09T18:12:21.787Z,58.00
2019-05-09T18:14:51.663Z,57.10
2019-05-09T18:17:23.145Z,57.70
2019-05-09T18:19:52.746Z,58.50
2019-05-09T18:22:22.497Z,57.80
2019-05-09T18:24:52.210Z,57.00
2019-05-09T18:27:21.894Z,57.50
2019-05-09T18:29:51.629Z,57.20
2019-05-09T18:32:22.873Z,58.40
2019-05-09T18:34:54.120Z,57.00
2019-05-09T18:37:23.806Z,57.70
2019-05-09T18:39:53.540Z,57.70
2019-05-09T18:42:23.149Z,58.70
2019-05-09T18:44:52.860Z,58.00
2019-05-09T18:47:22.472Z,59.10
2019-05-09T18:49:52.176Z,58.90
2019-05-09T18:52:21.886Z,59.10
2019-05-09T18:54:51.598Z,59.80
2019-05-09T18:57:21.306Z,60.20
2019-05-09T18:59:50.986Z,58.50
2019-05-09T19:02:22.460Z,59.30
2019-05-09T19:04:52.179Z,58.50
2019-05-09T19:07:22.994Z,58.20
2019-05-09T19:09:53.851Z,58.50
2019-05-09T19:12:23.569Z,57.90
2019-05-09T19:15:07.007Z,59.20
2019-05-09T19:17:41.183Z,58.00
2019-05-09T19:20:18.189Z,58.30
2019-05-09T19:22:47.896Z,59.40
2019-05-09T19:25:17.612Z,59.00
2019-05-09T19:27:47.319Z,58.60
2019-05-09T19:30:17.005Z,59.60
2019-05-09T19:32:46.739Z,58.90
2019-05-09T19:35:16.449Z,57.70
2019-05-09T19:37:46.032Z,58.90
2019-05-09T19:40:20.045Z,58.10
2019-05-09T19:42:47.014Z,58.20
2019-05-09T19:45:16.701Z,59.30
2019-05-09T19:47:46.437Z,58.60
2019-05-09T19:50:16.115Z,58.80
2019-05-09T19:52:45.854Z,59.10
2019-05-09T19:55:15.564Z,59.20
2019-05-09T19:57:46.166Z,58.90
2019-05-09T20:00:16.088Z,58.80
2019-05-09T20:02:45.821Z,60.20
2019-05-09T20:05:15.530Z,59.80
2019-05-09T20:07:45.211Z,59.70
2019-05-09T20:10:16.459Z,59.70
2019-05-09T20:12:47.733Z,59.40
2019-05-09T20:15:18.953Z,59.80
2019-05-09T20:17:48.689Z,60.60
2019-05-09T20:20:18.414Z,60.00
2019-05-09T20:22:52.928Z,60.00
2019-05-09T20:25:19.327Z,60.10
2019-05-09T20:27:49.065Z,60.50
2019-05-09T20:30:19.698Z,60.70
2019-05-09T20:32:49.485Z,60.40
2019-05-09T20:35:20.436Z,60.70
2019-05-09T20:37:50.339Z,59.90
2019-05-09T20:40:21.127Z,60.80
2019-05-09T20:42:51.090Z,61.30
2019-05-09T20:45:22.769Z,62.20
2019-05-09T20:47:52.354Z,62.30
2019-05-09T20:50:23.190Z,63.10
2019-05-09T20:53:07.295Z,62.90
2019-05-09T20:55:26.403Z,62.10
2019-05-09T20:57:55.978Z,63.40
2019-05-09T21:00:26.917Z,63.30
2019-05-09T21:02:56.759Z,64.10
2019-05-09T21:05:28.304Z,62.70
2019-05-09T21:07:59.226Z,63.10
2019-05-09T21:10:30.920Z,64.10
2019-05-09T21:13:00.514Z,63.10
2019-05-09T21:15:30.327Z,62.70
2019-05-09T21:18:00.241Z,63.30
2019-05-09T21:20:31.004Z,64.40
2019-05-09T21:23:00.895Z,65.50
2019-05-09T21:25:33.284Z,66.40
2019-05-09T21:28:02.235Z,64.70
2019-05-09T21:30:32.073Z,66.50
2019-05-09T21:33:01.983Z,66.10
2019-05-09T21:35:31.694Z,67.50
2019-05-09T21:38:01.376Z,68.20
2019-05-09T21:40:31.088Z,66.90
2019-05-09T21:43:00.795Z,67.40
2019-05-09T21:45:30.534Z,68.90
2019-05-09T21:48:00.216Z,67.70
2019-05-09T21:50:29.826Z,68.20
2019-05-09T21:52:59.562Z,68.30
2019-05-09T21:55:29.171Z,68.30
2019-05-09T21:57:58.851Z,68.80
2019-05-09T22:00:32.327Z,67.40
2019-05-09T22:03:03.855Z,66.70
2019-05-09T22:05:34.615Z,66.50
2019-05-09T22:08:04.376Z,66.90
2019-05-09T22:10:34.147Z,67.70
2019-05-09T22:13:03.796Z,67.40
2019-05-09T22:15:35.205Z,67.30
2019-05-09T22:18:04.829Z,67.10
2019-05-09T22:20:34.567Z,67.20
2019-05-09T22:23:06.385Z,67.10
2019-05-09T22:25:35.626Z,67.10
2019-05-09T22:28:05.202Z,67.60
2019-05-09T22:30:34.943Z,67.90
2019-05-09T22:33:04.611Z,67.10
2019-05-09T22:35:36.061Z,67.40
2019-05-09T22:38:05.710Z,67.80
2019-05-09T22:40:35.421Z,68.30
2019-05-09T22:43:05.130Z,68.40
2019-05-09T22:45:34.841Z,67.70
2019-05-09T22:48:04.552Z,67.80
2019-05-09T22:50:34.262Z,70.00
2019-05-09T22:53:03.875Z,68.30
2019-05-09T22:55:34.521Z,67.80
2019-05-09T22:58:04.315Z,68.60
2019-05-09T23:00:35.736Z,68.80
2019-05-09T23:03:05.350Z,68.90
2019-05-09T23:05:35.082Z,68.80
2019-05-09T23:08:04.689Z,69.60
2019-05-09T23:10:34.375Z,68.90
2019-05-09T23:13:04.010Z,68.00
2019-05-09T23:15:33.720Z,68.60
2019-05-09T23:18:04.347Z,68.60
2019-05-09T23:20:47.888Z,69.70
2019-05-09T23:23:32.140Z,69.40
2019-05-09T23:26:01.816Z,68.70
2019-05-09T23:28:31.553Z,70.00
2019-05-09T23:31:05.566Z,68.80
2019-05-09T23:33:36.787Z,69.40
2019-05-09T23:36:06.523Z,69.50
2019-05-09T23:38:37.744Z,69.80
2019-05-09T23:41:07.585Z,69.10
2019-05-09T23:43:37.292Z,68.60
2019-05-09T23:46:06.999Z,69.10
2019-05-09T23:48:36.710Z,70.00
2019-05-09T23:51:06.420Z,69.40
2019-05-09T23:53:37.464Z,70.10
2019-05-09T23:56:25.250Z,70.10
2019-05-09T23:59:14.002Z,70.20
